Aérodrome :
LOGIN :

S'inscrire | Disclaimer

   EN    FR    IT 

 










Légende :    VFR   VFR Marginal   IFR   IFR Intensif   IFR Très Intensif
Visi : 
Plafond : 
>= 8 km
>= 3000ft
5 à 8 km
1000 à 3000 ft
1500m à 5 km
500 à 1000 ft
800 à 1500m
200 à 500 ft
< 800m
< 200 ft
Symboles :   Orages  Brouillard  Fortes neiges  Fortes précipitations  Vent > 20 kt
SIGMETs :   Divers  Orages  Givrage  Turbulence  Onde Orograph.  Cendres Volcan.







- Altitude de l'aérodrome : 141 ft
- Code IATA : TGD


LYPG - Podgorica - Montenegro

DERNIER METAR :
  • 181330Z 23005KT 180V260 9999 SCT050 BKN070 17/07 Q1015 NOSIG

METARs EXPIRÉS :
  • 181300Z 22006KT 9999 SCT050 BKN070 17/07 Q1016 NOSIG
  • 181230Z 22007KT 160V250 9999 SCT050 BKN070 17/07 Q1016 NOSIG
  • 181200Z 21005KT 130V260 9999 SCT050 BKN070 17/06 Q1016 NOSIG
  • 181130Z 17004KT 120V230 9999 SCT050 BKN070 17/06 Q1016 NOSIG
  • 181100Z 23005KT 160V260 9999 SCT050 BKN070 17/08 Q1016 NOSIG

TAF TAF LYPG
Valide du 18 à 12h jusqu'au 19 à 12h UTC


181100Z 1812/1912 15006KT 9999 SCT040 SCT070 TX18/1813Z TN10/1905Z
TEMPO 1812/1993 5000 -RA
Pas de NOTAMs connus pour ce terrain.



MET'MAP, la Météo Aéronautique d'un coup d'oeil ! - Copyright ORBIFLY Décembre 2007 - Disclaimer

ORBIFLY MET'MAP TEAM :

Programmation & Développement : Alexandra Zaïnal
Conception & Développement : Baudouin d'Aumeries
Co-Programmation & Développement : Marc-Olivier Méhu
Soutien technique & logistique : Manuel Goepfert

Contact : metmap@orbifly.com




SOURCES & CREDITS :

   NOAA